• Join FlightAware (Why Join?)
  • Login
  • US Flag 
03:18AM EDT


 

Airport Tracker/Info


-or-


 

Live Flight TrackerFlight Track Log ✈ SWA1187 ✈ 05-May-2013 ✈ KMSP - KMKE

Flight Track Log - Related Links

Times and Time Zones

All times are in EDT time to prevent confusion due to time zone crossing. See the SWA1187 flight status page for this flight to view local times or setup timezone preferences in your user account.

Time Position Orientation Groundspeed Altitude Reporting Facility
EDT Latitude Longitude Course Direction KTS MPH feet Rate Location/Type
07:03AM 44.9167 -93.2333 353° North 186 214 3,500  Level Minneapolis TRACON
07:04AM 44.9392 -93.2375 353° North 200 230 4,600 3,420 Climbing Minneapolis Center
07:05AM 44.9531 -93.1525 77° East 244 281 8,500 3,960 Climbing Minneapolis Center
07:06AM 44.9214 -93.0467 113° Southeast 300 345 12,600 4,200 Climbing Minneapolis Center
07:07AM 44.8722 -92.9317 121° Southeast 338 389 16,900 4,020 Climbing Minneapolis Center
07:08AM 44.8203 -92.8122 121° Southeast 353 406 20,800 3,000 Climbing Minneapolis Center
07:09AM 44.7656 -92.6861 121° Southeast 372 428 23,000 1,080 Climbing Minneapolis Center
07:10AM 44.7097 -92.5586 122° Southeast 382 440 23,000 480 Level Minneapolis Center
07:11AM 44.6542 -92.4317 122° Southeast 382 440 24,000 1,680 Climbing Minneapolis Center
07:12AM 44.5986 -92.3019 121° Southeast 386 444 26,500 2,460 Climbing Minneapolis Center
07:13AM 44.5522 -92.1675 116° Southeast 385 443 29,000 1,200 Climbing Minneapolis Center
07:14AM 44.5069 -92.0336 115° Southeast 382 440 29,000  Level Minneapolis Center
07:15AM 44.4597 -91.8994 116° Southeast 384 442 29,000  Level Minneapolis Center
07:16AM 44.4139 -91.7658 116° Southeast 383 441 29,000  Level Minneapolis Center
07:17AM 44.3583 -91.6078 116° Southeast 380 437 29,000  Level Minneapolis Center
07:18AM 44.3022 -91.4481 116° Southeast 382 440 29,000  Level Minneapolis Center
07:19AM 44.2553 -91.3167 116° Southeast 382 440 29,000  Level Minneapolis Center
07:20AM 44.2075 -91.1817 116° Southeast 382 440 29,000  Level Minneapolis Center
07:21AM 44.1614 -91.0519 116° Southeast 379 436 29,000  Level Minneapolis Center
07:22AM 44.1156 -90.9244 117° Southeast 373 429 29,000  Level Minneapolis Center
07:23AM 44.0689 -90.7942 116° Southeast 377 434 29,000  Level Minneapolis Center
07:24AM 44.0219 -90.6633 116° Southeast 380 437 29,000  Level Minneapolis Center
07:25AM 43.9697 -90.5169 116° Southeast 379 436 29,000  Level Minneapolis Center
07:26AM 43.9228 -90.3856 116° Southeast 380 437 29,000  Level Minneapolis Center
07:27AM 43.8747 -90.2561 117° Southeast 378 435 29,000  Level Minneapolis Center
07:28AM 43.8225 -90.1281 119° Southeast 380 437 29,000  Level Minneapolis Center
07:29AM 43.7753 -89.9978 117° Southeast 379 436 29,000  Level Minneapolis Center
07:30AM 43.7283 -89.8664 116° Southeast 381 438 29,000 -540 Level Minneapolis Center
07:31AM 43.6803 -89.7378 117° Southeast 378 435 28,000 -1,740 Descending Minneapolis Center
07:32AM 43.6328 -89.6119 118° Southeast 374 430 25,600 -2,340 Descending Minneapolis Center
07:33AM 43.5853 -89.4875 118° Southeast 369 425 23,400 -2,100 Descending Minneapolis Center
07:34AM 43.5394 -89.3681 118° Southeast 359 413 21,400 -2,040 Descending Minneapolis Center
07:35AM 43.4958 -89.2544 118° Southeast 344 396 19,400 -1,980 Descending Minneapolis Center
07:36AM 43.4531 -89.1436 118° Southeast 333 383 17,500 -2,040 Descending Minneapolis Center
07:37AM 43.4111 -89.0386 119° Southeast 320 368 15,400 -2,040 Descending Minneapolis Center
07:38AM 43.3714 -88.9342 118° Southeast 313 360 13,500 -1,860 Descending Minneapolis Center
07:39AM 43.3258 -88.8189 118° Southeast 298 343 11,400 -1,620 Descending Chicago Center
07:40AM 43.2864 -88.7186 118° Southeast 300 345 10,000 -720 Descending Chicago Center
07:41AM 43.2411 -88.6006 118° Southeast 302 348 10,000  Level Chicago Center
07:42AM 43.2014 -88.4997 118° Southeast 302 348 10,000 -420 Level Chicago Center
07:43AM 43.1650 -88.4078 118° Southeast 281 323 9,200 -960 Descending Chicago Center
07:44AM 43.1297 -88.3186 118° Southeast 268 308 8,100 -1,080 Descending Chicago Center
07:45AM 43.1019 -88.2244 112° Southeast 268 308 7,100 -1,020 Descending Chicago Center
07:46AM 43.0811 -88.1269 106° East 268 308 6,100 -1,080 Descending Chicago Center
07:47AM 43.0667 -88.0833 114° Southeast 258 297 5,600 -1,200 Descending KMKE
07:48AM 43.0500 -87.9833 103° East 249 287 4,400 -1,320 Descending KMKE
07:49AM 43.0167 -87.9000 119° Southeast 250 288 3,000 -900 Descending KMKE
07:49AM 43.0086 -87.8594 105° East 247 284 3,000 -360 Level Chicago Center
07:50AM 42.9806 -87.8208 135° Southeast 178 205 2,500 -840 Descending Chicago Center
07:51AM 42.9550 -87.8508 221° Southwest 151 174 1,300 -1,200 Descending Chicago Center
07:52AM 42.9500 -87.8833 258° West 136 157 900 -1,140 Descending KMKE